Time;durP1;ratioP1;P1;durP2;ratioP2;P2;SDS_P1;SDS_P2;PMS_P1;PMS_P2;Temp;Humidity;BMP_temperature;BMP_pressure;BME280_temperature;BME280_humidity;BME280_pressure;Samples;Min_cycle;Max_cycle;Signal;HPM_P1;HPM_P2
2022/07/09 00:01:50;;;;;;;24.15;17.40;;;;;;;17.22;82.07;102743.13;5011301;28;20133;-58
2022/07/09 00:04:15;;;;;;;23.52;17.23;;;;;;;17.19;82.42;102738.16;5011368;28;20068;-58
2022/07/09 00:06:41;;;;;;;22.77;16.85;;;;;;;17.17;82.44;102722.81;5011514;28;20455;-57
2022/07/09 00:09:06;;;;;;;26.50;18.17;;;;;;;17.07;83.01;102726.63;5010963;28;20025;-58
2022/07/09 00:11:31;;;;;;;24.25;17.23;;;;;;;17.08;82.73;102723.50;5011102;28;20030;-58
2022/07/09 00:13:56;;;;;;;22.73;17.20;;;;;;;17.08;82.73;102722.69;5011279;28;20489;-59
2022/07/09 00:16:22;;;;;;;23.73;17.00;;;;;;;17.08;82.79;102719.88;5011115;28;20045;-58
2022/07/09 00:18:47;;;;;;;23.15;16.60;;;;;;;17.11;82.88;102736.03;5010587;28;20041;-58
2022/07/09 00:21:12;;;;;;;24.77;17.00;;;;;;;17.08;82.87;102731.88;5011013;28;20040;-58
2022/07/09 00:23:38;;;;;;;24.52;16.92;;;;;;;17.09;83.56;102732.75;5011193;28;20033;-58
2022/07/09 00:26:03;;;;;;;24.00;16.67;;;;;;;17.12;82.83;102735.75;5010822;28;20028;-59
2022/07/09 00:28:28;;;;;;;24.10;17.45;;;;;;;17.04;83.54;102735.59;5011106;28;20129;-58
2022/07/09 00:30:54;;;;;;;25.08;17.92;;;;;;;17.02;83.57;102732.28;5011016;28;20026;-58
2022/07/09 00:33:19;;;;;;;23.73;17.52;;;;;;;16.94;84.03;102736.59;4993177;28;20065;-59
2022/07/09 00:35:44;;;;;;;23.83;16.35;;;;;;;16.92;83.92;102731.28;5011303;28;20357;-58
2022/07/09 00:38:10;;;;;;;25.00;16.75;;;;;;;16.93;83.92;102732.97;5011195;28;20409;-59
2022/07/09 00:40:35;;;;;;;24.67;17.13;;;;;;;16.89;83.97;102725.47;5010617;28;20502;-59
2022/07/09 00:43:00;;;;;;;24.02;17.10;;;;;;;16.81;85.15;102727.81;5011108;28;20041;-59
2022/07/09 00:45:26;;;;;;;24.92;17.33;;;;;;;16.78;85.04;102739.59;5010967;28;20022;-59
2022/07/09 00:47:51;;;;;;;24.17;16.58;;;;;;;16.74;85.11;102727.38;5011121;28;20053;-59
2022/07/09 00:50:18;;;;;;;24.25;16.95;;;;;;;16.73;85.14;102725.72;5010791;28;20030;-59
2022/07/09 00:52:44;;;;;;;23.48;17.08;;;;;;;16.71;85.36;102730.75;5010913;28;20034;-59
2022/07/09 00:55:11;;;;;;;23.70;16.40;;;;;;;16.73;85.23;102724.84;5010835;28;20032;-60
2022/07/09 00:57:38;;;;;;;26.05;17.17;;;;;;;16.71;85.43;102729.94;5010352;28;20514;-59
2022/07/09 01:00:04;;;;;;;25.10;17.25;;;;;;;16.66;85.51;102726.06;4992742;28;20113;-59
2022/07/09 01:02:30;;;;;;;24.13;17.40;;;;;;;16.67;85.24;102727.75;5010406;28;20124;-59
2022/07/09 01:04:55;;;;;;;24.00;17.55;;;;;;;16.71;85.23;102729.94;5010418;28;20022;-59
2022/07/09 01:07:20;;;;;;;24.88;18.70;;;;;;;16.67;85.68;102724.13;5010696;28;20061;-59
2022/07/09 01:09:46;;;;;;;24.08;17.50;;;;;;;16.67;85.33;102724.94;5010272;28;20033;-59
2022/07/09 01:12:11;;;;;;;24.65;17.55;;;;;;;16.65;85.44;102721.63;5014083;28;20026;-60
2022/07/09 01:14:37;;;;;;;25.55;17.40;;;;;;;16.61;85.65;102709.41;5014496;28;20112;-57
2022/07/09 01:17:05;;;;;;;25.92;17.90;;;;;;;16.53;85.78;102710.91;5015878;28;20033;-57
2022/07/09 01:19:32;;;;;;;23.42;17.75;;;;;;;16.52;86.05;102714.81;5033792;28;20054;-57
2022/07/09 01:21:59;;;;;;;26.17;17.80;;;;;;;16.49;85.98;102704.25;5033551;28;20100;-58
2022/07/09 01:24:24;;;;;;;26.60;19.25;;;;;;;16.49;85.89;102701.44;5033580;28;20104;-57
2022/07/09 01:26:51;;;;;;;27.98;20.33;;;;;;;16.40;86.39;102696.84;5033593;28;20148;-58
2022/07/09 01:29:17;;;;;;;27.25;19.40;;;;;;;16.40;86.62;102699.66;5033429;28;20028;-58
2022/07/09 01:31:42;;;;;;;26.50;19.38;;;;;;;16.34;86.76;102708.06;5033567;28;20033;-59
2022/07/09 01:34:08;;;;;;;24.42;19.30;;;;;;;16.28;86.67;102700.09;5034077;28;20036;-59
2022/07/09 01:36:33;;;;;;;25.67;19.25;;;;;;;16.25;87.09;102707.09;5033796;28;20071;-59
2022/07/09 01:38:59;;;;;;;29.00;19.70;;;;;;;16.21;87.26;102700.47;5033620;28;20040;-59
2022/07/09 01:41:24;;;;;;;25.98;19.20;;;;;;;16.15;87.53;102698.88;5033677;28;20036;-59
2022/07/09 01:43:49;;;;;;;26.20;20.50;;;;;;;16.08;87.76;102696.44;5033457;28;20026;-59
2022/07/09 01:46:15;;;;;;;25.95;19.83;;;;;;;16.08;88.52;102692.78;5033746;28;20079;-59
2022/07/09 01:48:42;;;;;;;27.58;20.23;;;;;;;16.00;88.73;102692.34;5033200;28;20520;-58
2022/07/09 01:51:12;;;;;;;26.00;19.52;;;;;;;15.96;88.91;102682.06;5033492;28;20025;-58
2022/07/09 01:53:37;;;;;;;25.85;19.33;;;;;;;15.91;89.26;102685.75;5033227;28;20040;-57
2022/07/09 01:56:07;;;;;;;24.95;19.38;;;;;;;15.92;89.60;102681.84;5033636;28;20037;-58
2022/07/09 01:58:33;;;;;;;27.90;20.63;;;;;;;15.86;89.95;102683.84;5033442;28;20457;-57
2022/07/09 02:00:58;;;;;;;27.20;20.27;;;;;;;15.85;90.27;102679.41;5033391;28;20044;-57
2022/07/09 02:03:23;;;;;;;27.38;19.98;;;;;;;15.82;90.57;102677.16;5033632;28;20104;-57
2022/07/09 02:05:49;;;;;;;26.10;20.40;;;;;;;15.74;90.58;102675.03;5033064;28;20034;-58
2022/07/09 02:08:15;;;;;;;27.70;20.92;;;;;;;15.73;90.82;102674.22;5015353;28;20049;-58
2022/07/09 02:10:40;;;;;;;28.80;21.20;;;;;;;15.70;91.28;102685.13;5033457;28;20041;-58
2022/07/09 02:13:06;;;;;;;26.00;20.60;;;;;;;15.69;91.11;102672.31;5033306;28;20036;-58
2022/07/09 02:15:32;;;;;;;29.33;20.60;;;;;;;15.67;91.45;102677.34;5033303;28;20026;-58
2022/07/09 02:17:58;;;;;;;27.95;21.77;;;;;;;15.63;91.57;102670.72;5032879;28;20061;-58
2022/07/09 02:20:24;;;;;;;26.95;20.73;;;;;;;15.63;91.95;102681.88;5033007;28;20548;-58
2022/07/09 02:22:49;;;;;;;27.17;20.67;;;;;;;15.63;92.16;102674.31;5032128;28;20425;-58
2022/07/09 02:25:15;;;;;;;30.80;21.10;;;;;;;15.62;92.17;102674.63;5033336;28;20091;-58
2022/07/09 02:27:40;;;;;;;29.02;22.77;;;;;;;15.56;92.67;102673.84;5033179;28;20029;-59
2022/07/09 02:30:06;;;;;;;27.63;22.13;;;;;;;15.57;92.37;102673.53;5014390;28;20026;-59
2022/07/09 02:32:32;;;;;;;29.83;22.45;;;;;;;15.52;92.63;102668.03;5032863;28;20036;-59
2022/07/09 02:34:57;;;;;;;30.88;23.20;;;;;;;15.50;92.71;102670.28;5033065;28;20022;-59
2022/07/09 02:37:22;;;;;;;32.20;22.70;;;;;;;15.53;92.80;102669.72;5032664;28;20036;-58
2022/07/09 02:39:48;;;;;;;31.33;23.95;;;;;;;15.48;92.60;102674.50;5032679;28;20021;-58
2022/07/09 02:42:13;;;;;;;32.17;24.70;;;;;;;15.42;92.95;102663.38;5032245;28;20060;-57
2022/07/09 02:44:38;;;;;;;30.17;23.08;;;;;;;15.40;93.11;102651.69;5033031;28;20040;-58
2022/07/09 02:47:04;;;;;;;31.30;24.77;;;;;;;15.37;93.20;102649.50;5032480;28;20037;-58
2022/07/09 02:49:29;;;;;;;33.42;24.48;;;;;;;15.36;93.49;102655.38;5014887;28;20061;-57
2022/07/09 02:51:57;;;;;;;32.13;23.75;;;;;;;15.38;93.58;102651.19;5014809;28;20124;-58
2022/07/09 02:54:23;;;;;;;31.55;25.00;;;;;;;15.35;93.72;102646.19;5032887;28;20053;-58
2022/07/09 02:56:48;;;;;;;31.73;23.67;;;;;;;15.31;93.52;102649.84;5014811;28;20037;-57
2022/07/09 02:59:13;;;;;;;31.75;24.15;;;;;;;15.25;93.86;102649.06;5032972;28;20055;-57
2022/07/09 03:01:39;;;;;;;31.33;24.52;;;;;;;15.26;94.21;102653.53;5032682;28;20100;-58
2022/07/09 03:04:05;;;;;;;31.95;24.55;;;;;;;15.25;94.05;102647.13;5032368;28;20100;-58
2022/07/09 03:06:30;;;;;;;32.60;24.77;;;;;;;15.30;94.07;102654.63;5032233;28;20504;-57
2022/07/09 03:08:55;;;;;;;33.47;25.40;;;;;;;15.29;93.97;102647.38;5032329;28;20032;-58
2022/07/09 03:11:21;;;;;;;32.22;25.58;;;;;;;15.29;94.13;102653.75;5031730;28;20040;-58
2022/07/09 03:13:46;;;;;;;33.35;26.42;;;;;;;15.25;93.87;102647.13;5031912;28;20048;-57
2022/07/09 03:16:11;;;;;;;33.38;24.17;;;;;;;15.21;93.97;102648.81;5031833;28;20041;-58
2022/07/09 03:18:38;;;;;;;32.78;24.42;;;;;;;15.24;94.09;102647.41;5030990;28;20054;-58
2022/07/09 03:21:04;;;;;;;33.15;25.45;;;;;;;15.19;93.98;102645.50;5031572;28;20079;-58
2022/07/09 03:23:29;;;;;;;34.42;25.40;;;;;;;15.16;94.42;102643.28;5031846;28;20025;-57
2022/07/09 03:25:55;;;;;;;33.78;25.00;;;;;;;15.17;94.45;102655.28;5032065;28;20045;-58
2022/07/09 03:28:20;;;;;;;31.77;24.70;;;;;;;15.17;94.45;102652.50;5032052;28;20041;-57
2022/07/09 03:30:46;;;;;;;31.63;23.65;;;;;;;15.17;94.41;102658.06;5030971;28;20029;-57
2022/07/09 03:33:11;;;;;;;30.92;23.40;;;;;;;15.16;94.66;102659.19;5013284;28;20021;-58
2022/07/09 03:35:36;;;;;;;29.88;23.63;;;;;;;15.16;94.64;102661.97;5013665;28;20064;-59
2022/07/09 03:38:02;;;;;;;29.85;23.40;;;;;;;15.12;94.06;102647.81;5031810;28;20026;-58
2022/07/09 03:40:27;;;;;;;28.83;23.08;;;;;;;15.09;93.89;102646.44;5031769;28;20037;-57
2022/07/09 03:42:52;;;;;;;29.75;22.40;;;;;;;15.07;94.03;102654.25;5031188;28;20378;-57
2022/07/09 03:45:18;;;;;;;29.95;22.80;;;;;;;15.10;94.54;102653.69;5031200;28;20044;-57
2022/07/09 03:47:43;;;;;;;34.15;24.80;;;;;;;15.10;94.41;102647.25;5013480;28;20052;-58
2022/07/09 03:50:08;;;;;;;30.02;22.55;;;;;;;15.11;94.40;102646.13;5030921;28;20454;-57
2022/07/09 03:52:34;;;;;;;31.13;24.13;;;;;;;15.11;94.55;102646.13;5013075;28;20120;-58
2022/07/09 03:55:00;;;;;;;28.95;22.85;;;;;;;15.11;94.57;102646.94;5030418;28;20088;-58
2022/07/09 03:57:25;;;;;;;30.90;23.52;;;;;;;15.08;94.57;102650.34;5031119;28;20057;-57
2022/07/09 03:59:50;;;;;;;31.80;22.10;;;;;;;15.10;94.55;102641.69;5029155;28;20060;-58
2022/07/09 04:02:16;;;;;;;31.17;24.17;;;;;;;15.06;94.36;102643.41;5030775;28;20036;-58
2022/07/09 04:04:43;;;;;;;33.05;24.40;;;;;;;15.06;94.37;102640.63;5031033;28;20117;-57
2022/07/09 04:07:09;;;;;;;32.33;23.85;;;;;;;15.09;95.01;102643.66;5030574;28;20040;-57
2022/07/09 04:09:34;;;;;;;30.63;23.48;;;;;;;15.12;94.61;102640.25;5031017;28;20105;-57
2022/07/09 04:11:59;;;;;;;33.33;25.45;;;;;;;15.10;94.84;102638.91;5030871;28;20029;-58
2022/07/09 04:14:24;;;;;;;33.83;24.45;;;;;;;15.19;94.97;102634.34;5030886;28;20104;-57
2022/07/09 04:16:50;;;;;;;34.95;25.73;;;;;;;15.23;94.96;102638.22;5030736;28;20500;-58
2022/07/09 04:19:15;;;;;;;32.40;24.40;;;;;;;15.28;94.50;102640.94;5029917;28;20041;-59
2022/07/09 04:21:40;;;;;;;34.55;25.73;;;;;;;15.31;94.40;102642.31;5030552;28;20029;-58
2022/07/09 04:24:06;;;;;;;34.42;25.52;;;;;;;15.29;94.46;102642.59;5030524;28;20034;-59
2022/07/09 04:26:31;;;;;;;34.58;25.75;;;;;;;15.29;94.57;102637.03;5030371;28;20033;-58
2022/07/09 04:28:56;;;;;;;33.10;24.75;;;;;;;15.25;94.79;102637.91;5030549;28;20021;-58
2022/07/09 04:31:22;;;;;;;33.40;24.67;;;;;;;15.24;95.20;102636.25;5030503;28;20037;-58
2022/07/09 04:33:48;;;;;;;36.20;26.33;;;;;;;15.25;94.58;102640.69;5030621;28;20362;-58
2022/07/09 04:36:13;;;;;;;34.65;25.42;;;;;;;15.27;94.72;102644.84;5031094;28;20331;-58
2022/07/09 04:38:38;;;;;;;35.38;25.52;;;;;;;15.30;94.71;102646.25;5030669;28;20142;-59
2022/07/09 04:41:04;;;;;;;32.28;24.52;;;;;;;15.32;94.24;102643.16;5012629;28;20029;-58
2022/07/09 04:43:30;;;;;;;32.80;23.25;;;;;;;15.35;94.31;102648.16;5030503;28;20036;-58
2022/07/09 04:45:55;;;;;;;34.30;26.70;;;;;;;15.38;94.37;102648.38;5029471;28;20032;-58
2022/07/09 04:48:21;;;;;;;34.50;24.92;;;;;;;15.43;94.34;102645.53;5030473;28;20025;-58
2022/07/09 04:50:47;;;;;;;33.30;25.50;;;;;;;15.51;94.32;102640.41;5030488;28;20049;-57
2022/07/09 04:53:12;;;;;;;35.60;25.13;;;;;;;15.63;93.86;102638.06;5030594;28;20458;-58
2022/07/09 04:55:38;;;;;;;33.33;24.65;;;;;;;15.79;93.28;102629.50;5030254;28;20021;-58
2022/07/09 04:58:03;;;;;;;33.22;23.33;;;;;;;15.99;92.81;102632.06;5030268;28;20108;-58
2022/07/09 05:00:28;;;;;;;32.90;24.08;;;;;;;16.14;92.01;102636.59;5030273;28;20060;-59
2022/07/09 05:02:53;;;;;;;36.05;25.63;;;;;;;16.28;91.56;102630.28;5030448;28;20033;-58
2022/07/09 05:05:23;;;;;;;31.88;24.63;;;;;;;16.37;91.18;102631.25;5030257;28;20120;-58
2022/07/09 05:07:48;;;;;;;32.78;25.50;;;;;;;16.40;90.29;102629.81;5030036;28;20322;-57
2022/07/09 05:10:14;;;;;;;32.58;24.05;;;;;;;16.41;90.30;102625.91;5030383;28;20022;-58
2022/07/09 05:12:40;;;;;;;31.42;23.48;;;;;;;16.45;90.26;102619.41;5012649;28;20035;-58
2022/07/09 05:15:05;;;;;;;33.80;23.75;;;;;;;16.52;90.05;102619.84;5030161;28;20453;-58
2022/07/09 05:17:35;;;;;;;31.58;23.58;;;;;;;16.61;89.38;102633.97;5030206;28;20037;-58
2022/07/09 05:20:03;;;;;;;31.63;23.27;;;;;;;16.64;89.65;102626.94;5030154;28;20453;-58
2022/07/09 05:22:30;;;;;;;32.45;23.45;;;;;;;16.72;89.45;102631.81;5030149;28;20032;-58
2022/07/09 05:24:56;;;;;;;33.38;23.40;;;;;;;16.82;88.58;102620.47;5029929;28;20021;-58
2022/07/09 05:27:21;;;;;;;32.53;24.52;;;;;;;17.00;88.13;102612.38;5029832;28;20056;-58
2022/07/09 05:29:46;;;;;;;33.05;23.98;;;;;;;17.13;87.94;102614.38;5030037;28;20025;-58
2022/07/09 05:32:11;;;;;;;31.92;24.35;;;;;;;17.26;87.06;102617.47;5029696;28;20116;-58
2022/07/09 05:34:37;;;;;;;35.17;24.90;;;;;;;17.42;86.53;102626.41;5029995;28;20113;-58
2022/07/09 05:37:02;;;;;;;30.30;22.05;;;;;;;17.45;87.03;102620.19;5030408;28;20101;-58
2022/07/09 05:39:28;;;;;;;33.17;24.35;;;;;;;17.51;86.29;102621.75;5011919;28;20026;-58
2022/07/09 05:41:53;;;;;;;31.50;23.95;;;;;;;17.54;85.86;102623.94;5012201;28;20042;-60
2022/07/09 05:44:18;;;;;;;31.55;23.20;;;;;;;17.57;86.55;102605.69;5030051;28;20094;-58
2022/07/09 05:46:43;;;;;;;32.83;23.98;;;;;;;17.64;85.72;102605.28;5030061;28;20033;-58
2022/07/09 05:49:09;;;;;;;32.65;23.95;;;;;;;17.64;85.64;102606.09;5029513;28;20080;-58
2022/07/09 05:51:34;;;;;;;34.95;24.92;;;;;;;17.66;85.14;102605.81;5029836;28;20101;-57
2022/07/09 05:53:59;;;;;;;33.03;25.15;;;;;;;17.75;84.59;102613.13;5029737;28;20025;-58
2022/07/09 05:56:25;;;;;;;35.17;26.02;;;;;;;17.83;84.81;102605.13;5030207;28;20163;-58
2022/07/09 05:58:52;;;;;;;37.58;25.00;;;;;;;17.93;83.92;102602.97;5033434;28;20053;-59
2022/07/09 06:01:17;;;;;;;33.90;25.08;;;;;;;17.97;83.44;102608.78;5033256;28;20041;-58
2022/07/09 06:03:43;;;;;;;31.33;24.08;;;;;;;18.05;82.69;102608.03;5033251;28;20376;-58
2022/07/09 06:06:09;;;;;;;32.67;24.70;;;;;;;18.05;82.74;102602.44;5033506;28;20026;-58
2022/07/09 06:08:35;;;;;;;34.78;25.50;;;;;;;18.20;82.65;102617.22;5014580;28;20017;-58
2022/07/09 06:11:00;;;;;;;33.70;26.00;;;;;;;18.21;82.50;102611.34;5032809;28;20048;-58
2022/07/09 06:13:26;;;;;;;33.13;25.63;;;;;;;18.31;82.35;102617.84;5032867;28;20108;-59
2022/07/09 06:15:52;;;;;;;31.98;24.52;;;;;;;18.40;81.30;102622.34;5033320;28;20099;-58
2022/07/09 06:18:17;;;;;;;32.53;25.10;;;;;;;18.47;81.04;102627.53;5032588;28;20041;-58
2022/07/09 06:20:44;;;;;;;33.33;25.73;;;;;;;18.50;81.23;102624.09;5032829;28;20518;-58
2022/07/09 06:23:09;;;;;;;34.83;26.92;;;;;;;18.45;81.38;102621.41;5032942;28;20029;-58
2022/07/09 06:25:34;;;;;;;32.58;25.63;;;;;;;18.43;81.72;102625.69;5033012;28;20028;-59
2022/07/09 06:28:00;;;;;;;32.13;24.55;;;;;;;18.45;81.59;102623.38;5032676;28;20021;-59
2022/07/09 06:30:25;;;;;;;32.78;26.17;;;;;;;18.46;81.29;102625.06;5032697;28;20477;-58
2022/07/09 06:32:51;;;;;;;33.03;26.23;;;;;;;18.53;81.39;102631.84;5014471;28;20481;-58
2022/07/09 06:35:17;;;;;;;34.28;26.60;;;;;;;18.62;80.71;102628.28;5032630;28;20057;-59
2022/07/09 06:37:42;;;;;;;34.00;27.15;;;;;;;18.74;80.74;102628.56;5032885;28;20175;-58
2022/07/09 06:40:08;;;;;;;34.38;26.33;;;;;;;18.85;79.28;102629.09;5033091;28;20030;-58
2022/07/09 06:42:33;;;;;;;34.95;27.30;;;;;;;18.79;79.69;102625.63;5032360;28;20030;-58
2022/07/09 06:44:59;;;;;;;34.50;26.45;;;;;;;18.89;79.37;102629.31;5032449;28;20059;-58
2022/07/09 06:47:24;;;;;;;33.47;26.80;;;;;;;19.01;79.37;102636.03;5033006;28;20029;-58
2022/07/09 06:49:50;;;;;;;34.55;26.02;;;;;;;19.10;79.08;102638.88;5032750;28;20163;-58
2022/07/09 06:52:15;;;;;;;32.20;23.83;;;;;;;19.06;78.41;102626.66;5032363;28;20335;-58
2022/07/09 06:54:41;;;;;;;32.00;24.58;;;;;;;19.18;77.96;102620.44;5032928;28;20059;-59
2022/07/09 06:57:06;;;;;;;31.73;23.88;;;;;;;19.17;77.50;102621.59;5032472;28;20116;-58
2022/07/09 06:59:32;;;;;;;31.95;24.83;;;;;;;19.16;78.14;102625.53;5032869;28;20029;-58
2022/07/09 07:01:57;;;;;;;31.83;24.70;;;;;;;19.24;77.49;102623.94;5032568;28;20056;-59
2022/07/09 07:04:24;;;;;;;31.02;23.85;;;;;;;19.44;76.81;102623.38;5032825;28;20476;-58
2022/07/09 07:06:50;;;;;;;30.90;23.60;;;;;;;19.52;76.49;102627.34;5032886;28;20048;-58
2022/07/09 07:09:18;;;;;;;30.08;21.65;;;;;;;19.56;75.21;102628.34;5031448;28;20418;-58
2022/07/09 07:11:44;;;;;;;30.83;21.15;;;;;;;19.67;74.14;102626.06;5032432;28;20021;-58
2022/07/09 07:14:09;;;;;;;27.02;20.05;;;;;;;19.77;73.32;102624.97;5032481;28;20497;-59
2022/07/09 07:16:35;;;;;;;28.85;20.15;;;;;;;19.88;73.26;102617.91;5032230;28;20025;-59
2022/07/09 07:19:00;;;;;;;27.95;20.13;;;;;;;20.02;72.58;102626.22;5032516;28;20166;-59
2022/07/09 07:21:25;;;;;;;28.08;21.30;;;;;;;20.05;72.73;102611.47;5032289;28;20433;-58
2022/07/09 07:23:52;;;;;;;28.15;22.30;;;;;;;20.21;72.40;102623.06;5032768;28;20053;-58
2022/07/09 07:26:17;;;;;;;27.30;19.55;;;;;;;20.50;71.05;102627.22;5032726;28;20100;-59
2022/07/09 07:28:42;;;;;;;29.30;21.10;;;;;;;20.61;70.81;102627.69;5032290;28;20036;-59
2022/07/09 07:31:08;;;;;;;27.23;20.45;;;;;;;20.53;69.91;102634.16;5032140;28;20039;-59
2022/07/09 07:33:33;;;;;;;26.38;19.02;;;;;;;20.44;69.82;102628.53;5032565;28;20395;-59
2022/07/09 07:35:58;;;;;;;27.35;18.88;;;;;;;20.47;70.20;102624.25;5032162;28;20137;-60
2022/07/09 07:38:27;;;;;;;27.58;19.58;;;;;;;20.51;70.90;102631.69;5032197;28;20484;-59
2022/07/09 07:40:52;;;;;;;26.25;19.15;;;;;;;20.50;70.88;102623.59;5031310;28;20128;-59
2022/07/09 07:43:18;;;;;;;26.88;18.80;;;;;;;20.64;70.74;102632.66;5031551;28;20495;-59
2022/07/09 07:45:43;;;;;;;25.48;18.02;;;;;;;20.60;69.91;102636.47;5031332;28;20506;-57
2022/07/09 07:48:10;;;;;;;25.45;18.95;;;;;;;20.33;70.65;102636.47;5031387;28;20041;-58
2022/07/09 07:50:38;;;;;;;25.42;17.65;;;;;;;20.20;71.50;102626.22;5031704;28;20319;-57
2022/07/09 07:53:05;;;;;;;26.42;19.17;;;;;;;20.18;71.52;102629.34;5031225;28;20374;-59
2022/07/09 07:55:30;;;;;;;27.83;19.77;;;;;;;20.27;71.66;102630.19;5031258;28;20071;-58
2022/07/09 07:57:56;;;;;;;26.95;18.20;;;;;;;20.38;70.88;102638.28;5031658;28;20052;-62
2022/07/09 08:00:22;;;;;;;27.20;18.67;;;;;;;20.44;70.46;102624.88;5030779;28;20040;-59
2022/07/09 08:02:47;;;;;;;25.65;18.23;;;;;;;20.62;69.57;102634.97;5031368;28;20021;-58
2022/07/09 08:05:12;;;;;;;25.77;18.75;;;;;;;20.85;68.70;102623.56;5031079;28;20037;-59
2022/07/09 08:07:37;;;;;;;25.00;19.45;;;;;;;21.03;68.71;102622.38;5031060;28;20465;-58
2022/07/09 08:10:04;;;;;;;25.77;19.15;;;;;;;21.12;67.48;102604.63;5031296;28;20048;-58
2022/07/09 08:12:29;;;;;;;25.40;18.65;;;;;;;21.41;66.65;102608.66;5031285;28;20036;-58
2022/07/09 08:14:55;;;;;;;26.50;19.80;;;;;;;21.48;66.19;102604.16;5024211;28;20025;-58
2022/07/09 08:17:20;;;;;;;26.80;18.73;;;;;;;21.62;66.21;102592.69;5020708;28;20038;-58
2022/07/09 08:19:45;;;;;;;25.17;18.70;;;;;;;21.72;65.48;102597.09;5019887;28;20040;-58
2022/07/09 08:22:11;;;;;;;23.88;16.83;;;;;;;21.99;64.26;102582.81;5021585;28;20351;-59
2022/07/09 08:24:36;;;;;;;26.95;19.33;;;;;;;22.13;63.54;102580.53;5016530;28;20036;-58
2022/07/09 08:27:01;;;;;;;24.25;18.52;;;;;;;22.17;63.84;102575.88;4993344;28;20125;-58
2022/07/09 08:29:27;;;;;;;26.20;19.27;;;;;;;22.32;64.12;102568.78;5011410;28;20025;-58
2022/07/09 08:31:52;;;;;;;25.40;17.50;;;;;;;22.61;63.43;102569.88;4993154;28;20083;-58
2022/07/09 08:34:17;;;;;;;26.33;17.67;;;;;;;22.82;60.77;102574.59;5011211;28;20408;-58
2022/07/09 08:36:44;;;;;;;26.95;17.75;;;;;;;22.92;59.90;102565.69;5011290;28;20041;-58
2022/07/09 08:39:10;;;;;;;24.30;16.67;;;;;;;22.97;59.49;102568.31;5011218;28;20036;-58
2022/07/09 08:41:35;;;;;;;24.38;17.50;;;;;;;22.82;58.42;102572.63;5011429;28;20053;-58
2022/07/09 08:44:03;;;;;;;25.83;18.10;;;;;;;22.87;58.87;102571.56;5011024;28;20032;-59
2022/07/09 08:46:29;;;;;;;24.67;17.83;;;;;;;22.90;58.97;102570.88;5011221;28;20026;-58
2022/07/09 08:48:55;;;;;;;23.75;17.15;;;;;;;22.94;58.87;102559.72;5011174;28;20092;-58
2022/07/09 08:51:22;;;;;;;25.25;18.40;;;;;;;23.00;59.05;102564.75;5010678;28;20101;-59
2022/07/09 08:53:47;;;;;;;26.45;19.25;;;;;;;22.96;60.17;102568.63;5010740;28;20022;-59
2022/07/09 08:56:12;;;;;;;27.80;19.80;;;;;;;22.90;60.44;102570.88;5010929;28;20037;-59
2022/07/09 08:58:38;;;;;;;25.92;19.35;;;;;;;22.83;60.04;102574.28;5010731;28;20163;-59
2022/07/09 09:01:05;;;;;;;25.23;20.00;;;;;;;22.73;60.98;102567.06;4992928;28;20030;-60
2022/07/09 09:03:30;;;;;;;26.45;19.92;;;;;;;22.63;61.62;102567.50;4991948;28;20370;-59
2022/07/09 09:06:04;;;;;;;26.45;18.60;;;;;;;22.59;60.73;102569.38;5010562;28;20026;-59
2022/07/09 09:08:34;;;;;;;24.85;18.67;;;;;;;22.42;60.64;102573.19;5010518;28;20473;-60
2022/07/09 09:10:59;;;;;;;24.45;18.05;;;;;;;22.24;62.00;102572.53;5010046;28;20630;-60
2022/07/09 09:13:25;;;;;;;25.33;18.88;;;;;;;22.20;62.30;102580.00;5009770;28;20049;-60
2022/07/09 09:15:50;;;;;;;24.98;18.27;;;;;;;22.17;62.63;102567.44;5010446;28;20029;-59
2022/07/09 09:18:15;;;;;;;25.83;18.92;;;;;;;22.23;62.59;102574.50;5010213;28;20479;-60
2022/07/09 09:20:45;;;;;;;24.38;18.05;;;;;;;22.27;62.70;102563.34;5010367;28;20060;-59
2022/07/09 09:23:16;;;;;;;25.23;18.15;;;;;;;22.29;61.70;102566.66;5010460;28;20026;-59
2022/07/09 09:25:41;;;;;;;25.67;18.23;;;;;;;22.16;62.83;102568.59;5009952;28;20033;-59
2022/07/09 09:28:07;;;;;;;27.02;20.27;;;;;;;22.05;63.23;102568.19;5010387;28;20022;-59
2022/07/09 09:30:40;;;;;;;26.40;20.23;;;;;;;22.05;63.13;102571.00;5010393;28;20446;-60
2022/07/09 09:33:05;;;;;;;25.98;20.25;;;;;;;22.08;63.66;102570.31;5013769;28;20454;-60
2022/07/09 09:35:33;;;;;;;26.85;20.58;;;;;;;22.05;62.71;102584.25;5014513;28;20026;-60
2022/07/09 09:37:59;;;;;;;25.92;20.13;;;;;;;21.97;63.41;102569.06;5014630;28;20025;-60
2022/07/09 09:40:25;;;;;;;26.17;20.20;;;;;;;21.99;63.30;102572.38;5014068;28;20385;-60
2022/07/09 09:42:52;;;;;;;26.65;19.98;;;;;;;21.94;63.12;102566.94;5014513;28;20030;-60
2022/07/09 09:45:18;;;;;;;26.85;19.65;;;;;;;21.90;63.08;102571.59;5014719;28;20037;-60
2022/07/09 09:47:48;;;;;;;25.70;18.85;;;;;;;21.78;63.32;102581.63;5014276;28;20018;-60
2022/07/09 09:50:20;;;;;;;23.88;17.55;;;;;;;21.58;63.36;102579.59;5013673;28;20462;-60
2022/07/09 09:52:47;;;;;;;25.02;17.92;;;;;;;21.49;64.17;102579.63;4995422;28;20033;-60
2022/07/09 09:55:14;;;;;;;24.92;17.52;;;;;;;21.59;64.30;102584.06;5014053;28;20026;-60
2022/07/09 09:57:39;;;;;;;24.63;17.52;;;;;;;21.88;64.08;102559.84;5014159;28;20113;-60
2022/07/09 10:00:06;;;;;;;23.95;16.77;;;;;;;22.31;62.75;102567.13;5013975;28;20133;-60
2022/07/09 10:02:33;;;;;;;23.63;16.13;;;;;;;22.74;61.46;102554.63;5013957;28;20033;-60
2022/07/09 10:04:59;;;;;;;26.00;18.15;;;;;;;22.95;60.37;102570.66;5014026;28;20484;-60
2022/07/09 10:07:25;;;;;;;24.20;17.67;;;;;;;23.08;60.29;102557.38;5013871;28;20116;-60
2022/07/09 10:09:54;;;;;;;25.70;18.88;;;;;;;22.96;60.45;102574.28;5013887;28;20457;-60
2022/07/09 10:12:28;;;;;;;26.10;18.80;;;;;;;22.83;60.92;102551.72;4979808;28;20037;-60
2022/07/09 10:14:53;;;;;;;26.90;18.20;;;;;;;23.11;60.15;102562.31;4995994;28;20124;-59
2022/07/09 10:17:18;;;;;;;29.00;17.88;;;;;;;23.32;59.42;102550.13;5012978;28;20033;-59
2022/07/09 10:20:16;;;;;;;24.58;17.45;;;;;;;23.56;59.39;102562.59;5013477;28;20022;-60
2022/07/09 10:22:45;;;;;;;24.08;17.35;;;;;;;23.49;58.42;102555.53;4978467;28;20061;-60
2022/07/09 10:25:27;;;;;;;24.60;16.17;;;;;;;23.46;58.59;102538.47;5036691;28;20024;-60
2022/07/09 10:27:52;;;;;;;23.50;16.52;;;;;;;23.33;58.87;102554.63;5030957;28;20112;-61
2022/07/09 10:30:26;;;;;;;24.13;17.25;;;;;;;23.04;60.02;102557.25;5037068;28;20124;-59
2022/07/09 10:33:11;;;;;;;25.13;18.60;;;;;;;22.85;60.27;102560.66;5033812;28;20036;-59
2022/07/09 10:35:45;;;;;;;23.38;17.95;;;;;;;22.67;61.50;102557.19;5017599;28;20068;-60
2022/07/09 10:38:11;;;;;;;27.05;18.33;;;;;;;22.57;61.80;102547.19;5030418;28;20020;-60
2022/07/09 10:40:41;;;;;;;23.85;16.95;;;;;;;22.72;61.24;102550.50;5035022;28;20041;-59
2022/07/09 10:43:06;;;;;;;24.58;17.55;;;;;;;22.57;61.30;102544.38;5033736;28;20056;-58
2022/07/09 10:45:34;;;;;;;24.17;17.35;;;;;;;22.52;62.06;102549.41;5033515;28;20152;-59
2022/07/09 10:48:02;;;;;;;23.55;16.58;;;;;;;22.53;62.59;102551.06;5033615;28;20081;-60
2022/07/09 10:50:29;;;;;;;24.52;16.70;;;;;;;22.50;62.19;102555.38;5029129;28;20153;-60
2022/07/09 10:52:55;;;;;;;22.17;14.32;;;;;;;22.52;61.20;102540.94;5032639;28;20095;-58
2022/07/09 10:55:23;;;;;;;19.85;12.57;;;;;;;22.76;60.23;102551.47;5030684;28;20025;-57
2022/07/09 10:57:48;;;;;;;20.10;11.90;;;;;;;22.97;57.94;102556.19;5033818;28;20021;-58
2022/07/09 11:00:20;;;;;;;20.13;11.55;;;;;;;23.12;58.17;102554.66;5028628;28;20037;-58
2022/07/09 11:03:11;;;;;;;20.23;11.95;;;;;;;23.40;58.06;102556.81;5025108;28;20056;-58
2022/07/09 11:05:46;;;;;;;19.38;11.05;;;;;;;23.38;57.07;102543.06;5019009;28;20102;-59